Terminal Aerodrome Forecast
Issued by NWS

Current Version | Previous Version | Text Only | Print | Product List | Glossary On
Versions: 1 2 3 4 5 6 7 8 9 10 11 12
000
FTUS42 KMLB 020500
TAFLEE
TAF
KLEE 020520Z 0206/0306 VRB03KT P6SM FEW250
     FM021500 10004KT P6SM SCT030
     FM022100 10007KT P6SM SCT050=

USA.gov is the U.S. government's official web portal to all federal, state and local government web resources and services.